Time;durP1;ratioP1;P1;durP2;ratioP2;P2;SDS_P1;SDS_P2;PMS_P1;PMS_P2;Temp;Humidity;BMP_temperature;BMP_pressure;BME280_temperature;BME280_humidity;BME280_pressure;Samples;Min_cycle;Max_cycle;Signal;HPM_P1;HPM_P2
2023/03/19 00:01:12;;;;;;;29.88;10.02;;;8.10;99.90;;;;;;5050525;28;20097;-49
2023/03/19 00:03:38;;;;;;;27.35;10.27;;;8.00;99.90;;;;;;5050466;28;20385;-45
2023/03/19 00:06:04;;;;;;;34.22;10.73;;;7.90;99.90;;;;;;5049595;28;20013;-44
2023/03/19 00:08:29;;;;;;;40.78;11.82;;;7.90;99.90;;;;;;5049471;28;20025;-47
2023/03/19 00:10:55;;;;;;;33.88;12.32;;;7.80;99.90;;;;;;5050236;28;20117;-46
2023/03/19 00:13:21;;;;;;;34.17;10.95;;;7.70;99.90;;;;;;5049469;28;20478;-48
2023/03/19 00:15:46;;;;;;;33.15;10.98;;;7.70;99.90;;;;;;5050296;28;20048;-52
2023/03/19 00:18:12;;;;;;;29.80;11.35;;;7.70;99.90;;;;;;5049706;28;20147;-55
2023/03/19 00:20:38;;;;;;;28.83;10.80;;;7.60;99.90;;;;;;5050136;28;20056;-45
2023/03/19 00:23:04;;;;;;;32.42;11.48;;;7.50;99.90;;;;;;5045410;28;20033;-54
2023/03/19 00:25:30;;;;;;;33.15;9.02;;;7.50;99.90;;;;;;5049967;28;20498;-45
2023/03/19 00:27:56;;;;;;;33.58;10.18;;;7.50;99.90;;;;;;5050141;28;20486;-57
2023/03/19 00:30:22;;;;;;;31.73;9.98;;;7.50;99.90;;;;;;5050021;28;20086;-47
2023/03/19 00:32:49;;;;;;;26.30;9.38;;;7.40;99.90;;;;;;5050234;28;20017;-51
2023/03/19 00:35:15;;;;;;;29.02;10.43;;;7.40;99.90;;;;;;5050042;28;20025;-49
2023/03/19 00:37:41;;;;;;;35.25;10.13;;;7.40;99.90;;;;;;5049981;28;20044;-45
2023/03/19 00:40:09;;;;;;;28.27;9.20;;;7.40;99.90;;;;;;5050342;28;20025;-49
2023/03/19 00:42:35;;;;;;;24.17;8.95;;;7.40;99.90;;;;;;5040465;28;20028;-43
2023/03/19 00:45:01;;;;;;;37.78;10.10;;;7.40;99.90;;;;;;5050179;28;20021;-44
2023/03/19 00:47:26;;;;;;;20.08;8.85;;;7.40;99.90;;;;;;5039875;28;20466;-49
2023/03/19 00:49:52;;;;;;;27.02;9.75;;;7.40;99.90;;;;;;5050045;28;20013;-50
2023/03/19 00:52:18;;;;;;;25.42;10.50;;;7.40;99.90;;;;;;5038999;28;20064;-48
2023/03/19 00:54:44;;;;;;;31.48;10.40;;;7.40;99.90;;;;;;5050048;28;20017;-45
2023/03/19 00:57:10;;;;;;;26.67;9.90;;;7.50;99.90;;;;;;5021967;28;20045;-45
2023/03/19 00:59:35;;;;;;;29.33;10.30;;;7.60;99.90;;;;;;5048322;28;20025;-45
2023/03/19 01:02:02;;;;;;;27.15;10.35;;;7.70;99.90;;;;;;5041296;28;20057;-44
2023/03/19 01:04:28;;;;;;;29.05;10.55;;;7.70;99.90;;;;;;5046401;28;20035;-48
2023/03/19 01:06:53;;;;;;;21.35;9.50;;;7.80;99.90;;;;;;5046801;28;20096;-50
2023/03/19 01:09:19;;;;;;;25.55;10.25;;;7.90;99.90;;;;;;5049524;28;20377;-48
2023/03/19 01:11:45;;;;;;;24.42;9.50;;;7.90;99.90;;;;;;5028154;28;20037;-43
2023/03/19 01:14:11;;;;;;;30.63;10.45;;;7.90;99.90;;;;;;5049813;28;20064;-44
2023/03/19 01:16:37;;;;;;;23.83;9.15;;;7.90;99.90;;;;;;5028286;28;20093;-46
2023/03/19 01:19:02;;;;;;;21.80;10.02;;;8.00;99.90;;;;;;5053224;28;20446;-46
2023/03/19 01:21:29;;;;;;;25.58;9.25;;;8.00;99.90;;;;;;5049550;28;20441;-49
2023/03/19 01:23:56;;;;;;;19.95;8.38;;;8.10;99.90;;;;;;5034559;28;20036;-46
2023/03/19 01:26:22;;;;;;;26.77;8.55;;;8.10;99.90;;;;;;5035690;28;20017;-44
2023/03/19 01:28:48;;;;;;;19.70;9.10;;;8.10;99.90;;;;;;5035169;28;20025;-51
2023/03/19 01:31:13;;;;;;;21.67;8.60;;;8.20;99.90;;;;;;5051543;28;20036;-47
2023/03/19 01:33:39;;;;;;;15.98;7.47;;;8.20;99.90;;;;;;5047119;28;20033;-49
2023/03/19 01:36:05;;;;;;;22.15;7.82;;;8.30;99.90;;;;;;5048671;28;20025;-51
2023/03/19 01:38:31;;;;;;;22.50;8.60;;;8.30;99.90;;;;;;5046089;28;20410;-51
2023/03/19 01:40:56;;;;;;;19.80;8.65;;;8.30;99.90;;;;;;5052762;28;20017;-45
2023/03/19 01:43:25;;;;;;;19.98;8.38;;;8.30;99.90;;;;;;5043831;28;20516;-55
2023/03/19 01:45:57;;;;;;;22.13;8.23;;;8.40;99.90;;;;;;5052737;28;20497;-50
2023/03/19 01:48:23;;;;;;;21.25;7.85;;;8.40;99.90;;;;;;5042991;28;20035;-49
2023/03/19 01:50:49;;;;;;;20.70;8.40;;;8.50;99.90;;;;;;5052510;28;20039;-53
2023/03/19 01:53:17;;;;;;;18.45;6.93;;;8.50;99.90;;;;;;5042036;28;20037;-49
2023/03/19 01:55:42;;;;;;;20.63;8.65;;;8.50;99.90;;;;;;5052602;28;20504;-49
2023/03/19 01:58:09;;;;;;;18.23;7.75;;;8.60;99.90;;;;;;5052274;28;20116;-51
2023/03/19 02:00:37;;;;;;;20.77;7.68;;;8.60;99.90;;;;;;5052541;28;20429;-53
2023/03/19 02:03:04;;;;;;;19.05;7.32;;;8.60;99.90;;;;;;5039527;28;20035;-45
2023/03/19 02:05:29;;;;;;;20.83;8.40;;;8.60;99.90;;;;;;5052553;28;20076;-45
2023/03/19 02:08:00;;;;;;;23.05;7.65;;;8.60;99.90;;;;;;5043356;28;20075;-46
2023/03/19 02:10:28;;;;;;;23.77;7.88;;;8.50;99.90;;;;;;5034477;28;20382;-44
2023/03/19 02:12:54;;;;;;;21.70;7.95;;;8.50;99.90;;;;;;5048251;28;20401;-47
2023/03/19 02:15:20;;;;;;;16.88;7.20;;;8.50;99.90;;;;;;5052103;28;20021;-51
2023/03/19 02:17:46;;;;;;;15.85;6.80;;;8.50;99.90;;;;;;5047194;28;20059;-49
2023/03/19 02:20:12;;;;;;;18.23;6.38;;;8.50;99.90;;;;;;5052366;28;20033;-51
2023/03/19 02:22:46;;;;;;;16.15;6.72;;;8.50;99.90;;;;;;5046423;28;20029;-49
2023/03/19 02:25:34;;;;;;;15.15;6.88;;;8.60;99.90;;;;;;5052025;28;20120;-48
2023/03/19 02:28:01;;;;;;;11.00;6.00;;;8.60;99.90;;;;;;5048547;28;20037;-54
2023/03/19 02:30:31;;;;;;;19.15;6.93;;;8.70;99.90;;;;;;5051941;28;20017;-49
2023/03/19 02:32:56;;;;;;;14.05;6.18;;;8.70;99.90;;;;;;5044520;28;20113;-47
2023/03/19 02:35:22;;;;;;;16.35;6.38;;;8.70;99.90;;;;;;5051684;28;20116;-54
2023/03/19 02:37:48;;;;;;;12.55;6.35;;;8.70;99.90;;;;;;5043209;28;20486;-46
2023/03/19 02:40:22;;;;;;;14.10;6.60;;;8.70;99.90;;;;;;5051810;28;20025;-47
2023/03/19 02:42:48;;;;;;;11.05;5.47;;;8.70;99.90;;;;;;5038242;28;20050;-49
2023/03/19 02:45:14;;;;;;;12.73;6.07;;;8.70;99.90;;;;;;5051828;28;20025;-48
2023/03/19 02:47:40;;;;;;;13.27;5.25;;;8.70;99.90;;;;;;5051600;28;20021;-46
2023/03/19 02:50:06;;;;;;;16.13;5.80;;;8.70;99.90;;;;;;5051726;28;20380;-44
2023/03/19 02:52:33;;;;;;;10.15;4.63;;;8.70;99.90;;;;;;5051359;28;20021;-45
2023/03/19 02:54:58;;;;;;;9.80;4.00;;;8.70;99.90;;;;;;5051566;28;20017;-50
2023/03/19 02:57:24;;;;;;;15.13;4.85;;;8.60;99.90;;;;;;5051231;28;20027;-45
2023/03/19 02:59:50;;;;;;;9.10;4.20;;;8.60;99.90;;;;;;5051528;28;20055;-48
2023/03/19 03:02:16;;;;;;;11.05;5.35;;;8.60;99.90;;;;;;5050213;28;20061;-46
2023/03/19 03:04:42;;;;;;;11.50;4.43;;;8.60;99.90;;;;;;5050984;28;20031;-48
2023/03/19 03:07:07;;;;;;;9.13;4.22;;;8.50;99.90;;;;;;5050570;28;20060;-51
2023/03/19 03:09:34;;;;;;;12.60;3.80;;;8.50;99.90;;;;;;5051033;28;20073;-49
2023/03/19 03:12:00;;;;;;;11.38;3.90;;;8.40;99.90;;;;;;5051168;28;20060;-47
2023/03/19 03:14:25;;;;;;;12.55;3.67;;;8.40;99.90;;;;;;5051103;28;20028;-44
2023/03/19 03:16:51;;;;;;;12.02;3.92;;;8.40;99.90;;;;;;5051127;28;20090;-43
2023/03/19 03:19:18;;;;;;;11.73;3.80;;;8.40;99.90;;;;;;5050893;28;20087;-44
2023/03/19 03:21:43;;;;;;;7.88;2.90;;;8.40;99.90;;;;;;5050959;28;20013;-44
2023/03/19 03:24:10;;;;;;;9.65;3.42;;;8.40;99.90;;;;;;5050893;28;20443;-48
2023/03/19 03:26:37;;;;;;;9.80;3.20;;;8.40;99.90;;;;;;5047939;28;20033;-47
2023/03/19 03:29:04;;;;;;;13.38;4.10;;;8.30;99.90;;;;;;5042218;28;20059;-47
2023/03/19 03:31:30;;;;;;;14.48;3.78;;;8.40;99.90;;;;;;5050791;28;20019;-45
2023/03/19 03:33:56;;;;;;;8.88;3.33;;;8.30;99.90;;;;;;5050743;28;20033;-45
2023/03/19 03:36:22;;;;;;;4.65;2.30;;;8.30;99.90;;;;;;5050537;28;20067;-45
2023/03/19 03:38:47;;;;;;;17.75;4.60;;;8.30;99.90;;;;;;5050529;28;20521;-48
2023/03/19 03:41:13;;;;;;;19.45;5.07;;;8.30;99.90;;;;;;5050608;28;20021;-47
2023/03/19 03:43:39;;;;;;;9.10;2.95;;;8.20;99.90;;;;;;5050646;28;20436;-48
2023/03/19 03:46:06;;;;;;;10.77;2.72;;;8.20;99.90;;;;;;5050711;28;20441;-45
2023/03/19 03:48:32;;;;;;;7.32;2.65;;;8.20;99.90;;;;;;5050620;28;20017;-49
2023/03/19 03:50:57;;;;;;;2.90;1.77;;;8.10;99.90;;;;;;5050702;28;20029;-46
2023/03/19 03:53:23;;;;;;;5.78;1.98;;;8.10;99.90;;;;;;5034311;28;20120;-46
2023/03/19 03:55:48;;;;;;;21.67;4.47;;;8.00;99.90;;;;;;5032652;28;20013;-49
2023/03/19 03:58:15;;;;;;;7.90;2.83;;;8.00;99.90;;;;;;5047045;28;20124;-50
2023/03/19 04:00:41;;;;;;;10.98;3.40;;;8.00;99.90;;;;;;5050448;28;20025;-49
2023/03/19 04:03:07;;;;;;;12.95;3.67;;;8.00;99.90;;;;;;5050598;28;20068;-46
2023/03/19 04:05:33;;;;;;;9.27;2.78;;;8.00;99.90;;;;;;5048874;28;20075;-51
2023/03/19 04:07:59;;;;;;;7.97;2.20;;;7.90;99.90;;;;;;5050357;28;20498;-50
2023/03/19 04:10:24;;;;;;;11.65;3.03;;;7.90;99.90;;;;;;5050376;28;20021;-46
2023/03/19 04:12:50;;;;;;;18.30;4.47;;;7.90;99.90;;;;;;5050430;28;20025;-48
2023/03/19 04:15:16;;;;;;;11.48;3.97;;;7.90;99.90;;;;;;5050394;28;20030;-44
2023/03/19 04:17:42;;;;;;;10.05;4.28;;;7.90;99.90;;;;;;5049952;28;20037;-53
2023/03/19 04:20:09;;;;;;;8.40;3.33;;;7.90;99.90;;;;;;5050268;28;20032;-45
2023/03/19 04:22:35;;;;;;;9.25;3.40;;;7.80;99.90;;;;;;5050097;28;20064;-51
2023/03/19 04:25:01;;;;;;;5.97;2.78;;;7.80;99.90;;;;;;5050323;28;20071;-49
2023/03/19 04:27:26;;;;;;;5.53;2.00;;;7.80;99.90;;;;;;5040974;28;20034;-46
2023/03/19 04:29:52;;;;;;;3.55;1.40;;;7.80;99.90;;;;;;5050360;28;20021;-52
2023/03/19 04:32:18;;;;;;;4.32;1.60;;;7.80;99.90;;;;;;5050267;28;20025;-48
2023/03/19 04:34:43;;;;;;;4.80;2.28;;;7.80;99.90;;;;;;5050177;28;20029;-47
2023/03/19 04:37:09;;;;;;;7.00;1.60;;;7.70;99.90;;;;;;5050180;28;20063;-46
2023/03/19 04:39:35;;;;;;;6.32;1.80;;;7.70;99.90;;;;;;5049971;28;20035;-46
2023/03/19 04:42:02;;;;;;;4.60;1.88;;;7.70;99.90;;;;;;5050238;28;20025;-44
2023/03/19 04:44:27;;;;;;;3.45;1.60;;;7.70;99.90;;;;;;5050111;28;20098;-45
2023/03/19 04:46:53;;;;;;;7.10;2.05;;;7.70;99.90;;;;;;5050255;28;20393;-48
2023/03/19 04:49:19;;;;;;;5.68;1.73;;;7.70;99.90;;;;;;5050089;28;20021;-44
2023/03/19 04:51:45;;;;;;;7.93;2.00;;;7.70;99.90;;;;;;5051912;28;20390;-44
2023/03/19 04:54:11;;;;;;;6.07;1.63;;;7.70;99.90;;;;;;5053956;28;20028;-44
2023/03/19 04:56:36;;;;;;;4.13;2.13;;;7.60;99.90;;;;;;5043632;28;20112;-45
2023/03/19 04:59:02;;;;;;;6.57;1.92;;;7.60;99.90;;;;;;5053604;28;20037;-46
2023/03/19 05:01:28;;;;;;;10.32;2.53;;;7.60;99.90;;;;;;5053716;28;20074;-43
2023/03/19 05:03:53;;;;;;;5.18;2.00;;;7.50;99.90;;;;;;5053720;28;20032;-45
2023/03/19 05:06:19;;;;;;;8.85;2.35;;;7.50;99.90;;;;;;5053668;28;20021;-45
2023/03/19 05:08:45;;;;;;;7.05;1.88;;;7.50;99.90;;;;;;5053292;28;20087;-46
2023/03/19 05:11:11;;;;;;;7.45;2.00;;;7.40;99.90;;;;;;5053743;28;20025;-44
2023/03/19 05:13:37;;;;;;;5.43;1.90;;;7.40;99.90;;;;;;5053631;28;20401;-44
2023/03/19 05:16:03;;;;;;;5.60;1.80;;;7.40;99.90;;;;;;5035700;28;20413;-44
2023/03/19 05:18:28;;;;;;;5.50;2.25;;;7.40;99.90;;;;;;5035458;28;20405;-45
2023/03/19 05:20:54;;;;;;;8.73;2.40;;;7.30;99.90;;;;;;5053173;28;20025;-50
2023/03/19 05:23:21;;;;;;;9.93;2.65;;;7.30;99.90;;;;;;5053526;28;20462;-51
2023/03/19 05:25:47;;;;;;;5.45;2.10;;;7.30;99.90;;;;;;5048074;28;20017;-45
2023/03/19 05:28:13;;;;;;;7.13;2.40;;;7.30;99.90;;;;;;5053254;28;20078;-44
2023/03/19 05:30:39;;;;;;;5.15;2.10;;;7.30;99.90;;;;;;5053305;28;20025;-50
2023/03/19 05:33:05;;;;;;;6.28;2.38;;;7.30;99.90;;;;;;5053505;28;20100;-50
2023/03/19 05:35:30;;;;;;;5.63;2.40;;;7.40;99.90;;;;;;5053078;28;20109;-46
2023/03/19 05:37:57;;;;;;;6.13;2.03;;;7.30;99.90;;;;;;5052924;28;20041;-55
2023/03/19 05:40:23;;;;;;;6.63;2.50;;;7.30;99.90;;;;;;5053062;28;20107;-50
2023/03/19 05:42:49;;;;;;;5.80;2.05;;;7.30;99.90;;;;;;5053005;28;20025;-53
2023/03/19 05:45:16;;;;;;;6.13;2.22;;;7.30;99.90;;;;;;5053099;28;20021;-49
2023/03/19 05:47:43;;;;;;;10.15;2.70;;;7.30;99.90;;;;;;5052944;28;20021;-53
2023/03/19 05:50:10;;;;;;;7.40;2.17;;;7.30;99.90;;;;;;5052658;28;20040;-48
2023/03/19 05:52:36;;;;;;;8.07;2.40;;;7.30;99.90;;;;;;5052740;28;20021;-55
2023/03/19 05:55:02;;;;;;;6.72;2.65;;;7.20;99.90;;;;;;5034994;28;20029;-51
2023/03/19 05:57:27;;;;;;;6.35;2.40;;;7.30;99.90;;;;;;5052247;28;20466;-50
2023/03/19 05:59:53;;;;;;;8.68;2.65;;;7.20;99.90;;;;;;5052571;28;20033;-51
2023/03/19 06:02:19;;;;;;;6.03;2.10;;;7.00;99.90;;;;;;5051771;28;20021;-45
2023/03/19 06:04:45;;;;;;;8.88;2.50;;;6.90;99.90;;;;;;5052239;28;20108;-45
2023/03/19 06:07:10;;;;;;;7.93;2.30;;;6.80;99.90;;;;;;5034569;28;20032;-51
2023/03/19 06:09:36;;;;;;;5.07;2.03;;;6.70;99.90;;;;;;5052374;28;20403;-53
2023/03/19 06:12:02;;;;;;;8.32;2.22;;;6.60;99.90;;;;;;5052425;28;20025;-53
2023/03/19 06:14:28;;;;;;;8.73;2.92;;;6.50;99.90;;;;;;5052210;28;20017;-50
2023/03/19 06:16:54;;;;;;;8.15;1.98;;;6.50;99.90;;;;;;5052098;28;20494;-52
2023/03/19 06:19:20;;;;;;;7.70;1.77;;;6.40;99.90;;;;;;5051982;28;20037;-53
2023/03/19 06:21:45;;;;;;;8.05;1.92;;;6.30;99.90;;;;;;5052246;28;20028;-45
2023/03/19 06:24:11;;;;;;;11.68;1.90;;;6.30;99.90;;;;;;5052012;28;20408;-46
2023/03/19 06:26:37;;;;;;;7.20;1.55;;;6.30;99.90;;;;;;5045244;28;20017;-50
2023/03/19 06:29:03;;;;;;;7.60;1.85;;;6.20;99.90;;;;;;5052193;28;20402;-47
2023/03/19 06:31:28;;;;;;;8.48;1.70;;;6.10;99.90;;;;;;5034323;28;20057;-50
2023/03/19 06:33:54;;;;;;;9.07;1.80;;;6.10;99.90;;;;;;5052027;28;20068;-53
2023/03/19 06:36:20;;;;;;;7.03;1.75;;;6.20;99.90;;;;;;5052011;28;20068;-47
2023/03/19 06:38:46;;;;;;;7.47;2.17;;;6.20;99.90;;;;;;5052038;28;20136;-49
2023/03/19 06:41:11;;;;;;;6.10;1.42;;;6.20;99.90;;;;;;5051864;28;20060;-44
2023/03/19 06:43:40;;;;;;;6.35;1.77;;;6.10;99.90;;;;;;5033985;28;20044;-44
2023/03/19 06:46:06;;;;;;;6.53;2.05;;;6.20;99.90;;;;;;5051807;28;20040;-44
2023/03/19 06:48:33;;;;;;;5.68;1.50;;;6.20;99.90;;;;;;5051590;28;20477;-44
2023/03/19 06:50:59;;;;;;;7.25;1.50;;;6.10;99.90;;;;;;5051921;28;20033;-44
2023/03/19 06:53:25;;;;;;;9.93;1.73;;;6.20;99.90;;;;;;5051415;28;20021;-44
2023/03/19 06:55:50;;;;;;;5.32;1.77;;;6.10;99.90;;;;;;5043539;28;20017;-48
2023/03/19 06:58:16;;;;;;;7.07;1.38;;;6.20;99.90;;;;;;5047658;28;20044;-45
2023/03/19 07:00:42;;;;;;;7.20;1.55;;;6.30;99.90;;;;;;5051467;28;20017;-44
2023/03/19 07:03:09;;;;;;;5.10;1.90;;;6.30;99.90;;;;;;5051444;28;20032;-44
2023/03/19 07:05:35;;;;;;;6.50;1.50;;;6.30;99.90;;;;;;5051455;28;20021;-48
2023/03/19 07:08:00;;;;;;;7.60;1.88;;;6.40;99.90;;;;;;5051272;28;20040;-44
2023/03/19 07:10:26;;;;;;;8.88;1.73;;;6.40;99.90;;;;;;5033142;28;20024;-44
2023/03/19 07:12:52;;;;;;;10.15;2.80;;;6.50;99.90;;;;;;5033366;28;20052;-50
2023/03/19 07:15:19;;;;;;;7.68;1.73;;;6.60;99.90;;;;;;5050987;28;20027;-50
2023/03/19 07:17:48;;;;;;;4.13;1.63;;;6.60;99.90;;;;;;5050908;28;20052;-46
2023/03/19 07:20:15;;;;;;;7.00;1.75;;;6.60;99.90;;;;;;5051327;28;20025;-44
2023/03/19 07:22:40;;;;;;;8.95;2.03;;;6.70;99.90;;;;;;5051244;28;20474;-47
2023/03/19 07:25:06;;;;;;;7.18;1.75;;;6.70;99.90;;;;;;5049355;28;20482;-44
2023/03/19 07:27:32;;;;;;;5.72;1.50;;;6.80;99.90;;;;;;5046345;28;20029;-46
2023/03/19 07:29:58;;;;;;;6.00;1.60;;;6.80;99.90;;;;;;5052086;28;20029;-44
2023/03/19 07:32:23;;;;;;;8.38;1.60;;;6.90;99.90;;;;;;5052246;28;20024;-45
2023/03/19 07:34:49;;;;;;;6.75;1.70;;;6.90;99.90;;;;;;5050946;28;20637;-49
2023/03/19 07:37:15;;;;;;;8.52;1.85;;;7.00;99.90;;;;;;5050816;28;20107;-52
2023/03/19 07:39:41;;;;;;;10.18;1.95;;;7.00;99.90;;;;;;5050579;28;20112;-48
2023/03/19 07:42:06;;;;;;;3.33;1.20;;;7.10;99.90;;;;;;5033004;28;20017;-49
2023/03/19 07:44:32;;;;;;;7.53;1.40;;;7.20;99.90;;;;;;5050625;28;20477;-46
2023/03/19 07:46:58;;;;;;;7.30;1.70;;;7.30;99.90;;;;;;5050869;28;20024;-44
2023/03/19 07:49:24;;;;;;;5.45;1.45;;;7.30;99.90;;;;;;5050707;28;20031;-48
2023/03/19 07:51:50;;;;;;;7.82;1.60;;;7.50;99.90;;;;;;5050700;28;20110;-49
2023/03/19 07:54:15;;;;;;;4.47;1.23;;;7.60;99.90;;;;;;5050514;28;20429;-48
2023/03/19 07:56:41;;;;;;;8.35;1.48;;;8.40;99.90;;;;;;5044161;28;20515;-48
2023/03/19 07:59:07;;;;;;;7.20;1.50;;;9.80;99.90;;;;;;5050385;28;20036;-44
2023/03/19 08:01:33;;;;;;;5.70;1.27;;;11.50;99.90;;;;;;5050286;28;20024;-49
2023/03/19 08:03:58;;;;;;;8.30;1.38;;;13.30;99.90;;;;;;5050512;28;20029;-47
2023/03/19 08:06:24;;;;;;;5.57;1.30;;;14.70;99.90;;;;;;5050477;28;20386;-49
2023/03/19 08:08:50;;;;;;;6.30;1.05;;;16.30;99.90;;;;;;5050340;28;20024;-50
2023/03/19 08:11:15;;;;;;;5.05;1.20;;;17.00;91.80;;;;;;5050429;28;20120;-46
2023/03/19 08:13:41;;;;;;;4.10;1.10;;;17.90;87.60;;;;;;5050374;28;20116;-47
2023/03/19 08:16:07;;;;;;;4.15;1.20;;;19.50;82.20;;;;;;5050290;28;20029;-50
2023/03/19 08:18:33;;;;;;;7.30;1.17;;;19.40;74.70;;;;;;5050288;28;20045;-50
2023/03/19 08:20:59;;;;;;;8.77;1.50;;;20.10;69.60;;;;;;5050190;28;20020;-47
2023/03/19 08:23:25;;;;;;;5.05;1.30;;;20.70;71.10;;;;;;5050341;28;20032;-53
2023/03/19 08:25:52;;;;;;;4.90;1.30;;;21.00;69.80;;;;;;5041841;28;20530;-52
2023/03/19 08:28:18;;;;;;;4.05;1.17;;;20.20;65.20;;;;;;5036369;28;20082;-50
2023/03/19 08:30:44;;;;;;;8.10;1.75;;;21.30;66.90;;;;;;5054360;28;20024;-43
2023/03/19 08:33:10;;;;;;;5.60;1.80;;;21.30;65.30;;;;;;5054306;28;20029;-52
2023/03/19 08:35:35;;;;;;;6.97;1.65;;;22.20;63.90;;;;;;5054298;28;20024;-51
2023/03/19 08:38:01;;;;;;;5.03;1.60;;;22.90;60.50;;;;;;5053807;28;20108;-46
2023/03/19 08:40:27;;;;;;;8.52;1.80;;;23.30;58.30;;;;;;5054120;28;20108;-50
2023/03/19 08:42:54;;;;;;;4.75;1.33;;;23.50;54.60;;;;;;5052781;28;20028;-46
2023/03/19 08:45:20;;;;;;;8.10;1.45;;;23.10;57.50;;;;;;5041639;28;20040;-46
2023/03/19 08:47:46;;;;;;;6.10;1.50;;;23.50;56.40;;;;;;5052553;28;20025;-45
2023/03/19 08:50:12;;;;;;;5.85;1.38;;;24.20;53.80;;;;;;5053913;28;20029;-44
2023/03/19 08:52:38;;;;;;;5.43;1.45;;;23.20;54.30;;;;;;5051760;28;20135;-45
2023/03/19 08:55:04;;;;;;;5.32;1.30;;;24.50;54.90;;;;;;5053963;28;20066;-47
2023/03/19 08:57:31;;;;;;;6.93;1.38;;;24.90;53.80;;;;;;5050405;28;20504;-43
2023/03/19 08:59:57;;;;;;;4.82;1.10;;;24.60;53.00;;;;;;5053906;28;20033;-51
2023/03/19 09:02:22;;;;;;;4.20;1.23;;;23.40;51.80;;;;;;5047453;28;20037;-51
2023/03/19 09:04:48;;;;;;;7.45;1.75;;;23.70;54.20;;;;;;5047646;28;20044;-48
2023/03/19 09:07:17;;;;;;;4.65;1.45;;;23.70;51.80;;;;;;5043001;28;20035;-46
2023/03/19 09:09:43;;;;;;;8.05;1.50;;;23.70;53.50;;;;;;5048009;28;20029;-48
2023/03/19 09:12:11;;;;;;;6.60;1.52;;;24.50;52.40;;;;;;5038037;28;20049;-50
2023/03/19 09:14:37;;;;;;;6.07;1.40;;;25.30;51.80;;;;;;5053170;28;20021;-46
2023/03/19 09:17:03;;;;;;;5.80;1.27;;;23.30;48.30;;;;;;5043939;28;20046;-48
2023/03/19 09:19:29;;;;;;;6.07;1.52;;;23.10;53.20;;;;;;5052087;28;20040;-48
2023/03/19 09:21:55;;;;;;;7.07;1.40;;;23.70;53.60;;;;;;5053252;28;20722;-46
2023/03/19 09:24:20;;;;;;;6.07;1.80;;;24.40;51.20;;;;;;5053073;28;20028;-48
2023/03/19 09:26:46;;;;;;;8.98;1.95;;;25.10;49.10;;;;;;5050087;28;20124;-46
2023/03/19 09:29:12;;;;;;;8.02;1.83;;;24.80;51.00;;;;;;5047784;28;20024;-49
2023/03/19 09:31:38;;;;;;;6.47;1.83;;;26.10;49.20;;;;;;5047332;28;20025;-50
2023/03/19 09:34:05;;;;;;;6.20;1.63;;;24.70;46.80;;;;;;5046272;28;20402;-51
2023/03/19 09:36:31;;;;;;;5.75;1.70;;;24.60;48.10;;;;;;5048144;28;20381;-45
2023/03/19 09:38:57;;;;;;;6.85;1.40;;;24.50;48.60;;;;;;5044258;28;20486;-45
2023/03/19 09:41:23;;;;;;;5.72;1.67;;;23.50;50.60;;;;;;5051620;28;20022;-45
2023/03/19 09:43:48;;;;;;;5.75;1.50;;;23.30;49.90;;;;;;5053009;28;20051;-50
2023/03/19 09:46:27;;;;;;;5.43;2.25;;;23.00;50.40;;;;;;5052509;28;20031;-52
2023/03/19 09:49:03;;;;;;;8.40;1.55;;;22.90;51.00;;;;;;5052916;28;20095;-44
2023/03/19 09:51:51;;;;;;;4.97;1.33;;;23.30;51.70;;;;;;5049723;28;20033;-54
2023/03/19 09:54:28;;;;;;;4.03;1.20;;;22.20;50.90;;;;;;5043895;28;20535;-43
2023/03/19 09:56:55;;;;;;;4.35;1.10;;;21.90;53.70;;;;;;5049036;28;20486;-43
2023/03/19 09:59:25;;;;;;;4.22;1.05;;;20.60;53.10;;;;;;5052442;28;20118;-43
2023/03/19 10:02:20;;;;;;;4.43;1.48;;;20.30;55.90;;;;;;5047903;28;20067;-46
2023/03/19 10:04:59;;;;;;;8.90;1.38;;;19.30;56.10;;;;;;5044917;28;20049;-49
2023/03/19 10:07:34;;;;;;;7.00;1.55;;;19.00;57.80;;;;;;5044839;28;20114;-47
2023/03/19 10:10:15;;;;;;;4.22;1.30;;;18.30;60.00;;;;;;5052217;28;20500;-53
2023/03/19 10:13:21;;;;;;;8.15;1.50;;;17.40;60.60;;;;;;5042475;28;20025;-48
2023/03/19 10:15:49;;;;;;;5.43;1.25;;;16.60;64.70;;;;;;5052212;28;20029;-45
2023/03/19 10:18:16;;;;;;;3.90;1.10;;;17.60;65.90;;;;;;5041644;28;20512;-57
2023/03/19 10:20:45;;;;;;;5.50;1.15;;;18.90;62.40;;;;;;5052299;28;20029;-43
2023/03/19 10:23:29;;;;;;;4.97;1.08;;;20.60;58.30;;;;;;5040687;28;20092;-43
2023/03/19 10:25:58;;;;;;;4.78;0.88;;;23.30;55.30;;;;;;5052051;28;20102;-43
2023/03/19 10:28:27;;;;;;;4.03;1.05;;;25.80;51.40;;;;;;5051883;28;20033;-46
2023/03/19 10:31:17;;;;;;;3.67;0.70;;;25.50;46.60;;;;;;5051816;28;20024;-44
2023/03/19 10:34:01;;;;;;;4.60;1.00;;;24.30;48.20;;;;;;5041644;28;20031;-52
2023/03/19 10:36:32;;;;;;;8.52;1.17;;;21.90;49.20;;;;;;5051598;28;20021;-45
2023/03/19 10:38:58;;;;;;;3.92;0.90;;;20.50;51.30;;;;;;5051861;28;20107;-47
2023/03/19 10:41:41;;;;;;;4.35;1.20;;;18.90;54.90;;;;;;5051061;28;20060;-45
2023/03/19 10:44:15;;;;;;;2.83;0.95;;;17.20;59.60;;;;;;5051690;28;20063;-45
2023/03/19 10:46:40;;;;;;;4.15;1.20;;;16.40;63.60;;;;;;5050059;28;20432;-43
2023/03/19 10:49:14;;;;;;;6.53;1.42;;;16.10;65.30;;;;;;5050926;28;20037;-48
2023/03/19 10:51:45;;;;;;;3.42;0.98;;;16.00;67.90;;;;;;5049002;28;20021;-45
2023/03/19 10:54:20;;;;;;;5.05;0.90;;;16.30;66.70;;;;;;5051583;28;20064;-47
2023/03/19 10:56:46;;;;;;;5.65;0.95;;;16.00;64.30;;;;;;5030743;28;20625;-43
2023/03/19 10:59:30;;;;;;;4.75;1.27;;;15.40;67.80;;;;;;5051383;28;20040;-50
2023/03/19 11:01:58;;;;;;;4.93;0.90;;;14.80;68.80;;;;;;5046803;28;20037;-44
2023/03/19 11:04:25;;;;;;;4.25;1.02;;;14.90;70.70;;;;;;5051328;28;20036;-57
2023/03/19 11:06:53;;;;;;;4.47;1.05;;;14.90;68.00;;;;;;5045986;28;20041;-50
2023/03/19 11:09:35;;;;;;;3.75;1.00;;;14.90;69.10;;;;;;5051181;28;20421;-54
2023/03/19 11:12:30;;;;;;;3.90;1.40;;;16.00;69.50;;;;;;5041710;28;20026;-48
2023/03/19 11:14:57;;;;;;;4.90;0.85;;;16.60;66.60;;;;;;5040634;28;20039;-50
2023/03/19 11:17:36;;;;;;;3.42;0.60;;;16.70;63.30;;;;;;5034869;28;20045;-51
2023/03/19 11:20:14;;;;;;;3.00;0.85;;;16.70;64.20;;;;;;5051286;28;20115;-46
2023/03/19 11:22:40;;;;;;;3.58;0.80;;;16.50;63.70;;;;;;5039290;28;20040;-51
2023/03/19 11:25:26;;;;;;;2.45;0.98;;;16.10;63.40;;;;;;5050943;28;20134;-45
2023/03/19 11:28:06;;;;;;;3.42;0.90;;;15.50;64.20;;;;;;5043971;28;20473;-49
2023/03/19 11:31:07;;;;;;;4.90;0.90;;;15.00;68.10;;;;;;5050749;28;20025;-50
2023/03/19 11:34:05;;;;;;;2.53;0.82;;;14.70;69.50;;;;;;5050978;28;20024;-47
2023/03/19 11:37:09;;;;;;;4.95;1.23;;;14.60;71.10;;;;;;5012693;28;20032;-50
2023/03/19 11:39:37;;;;;;;6.78;1.40;;;14.30;71.60;;;;;;5050565;28;20040;-46
2023/03/19 11:42:37;;;;;;;6.22;1.10;;;14.30;72.10;;;;;;5050753;28;20028;-49
2023/03/19 11:45:42;;;;;;;3.92;0.98;;;14.30;73.80;;;;;;5032877;28;20386;-54
2023/03/19 11:48:20;;;;;;;4.90;1.33;;;14.80;71.50;;;;;;5050260;28;20033;-45
2023/03/19 11:51:16;;;;;;;4.35;1.10;;;15.10;70.90;;;;;;5050461;28;20102;-56
2023/03/19 11:54:04;;;;;;;6.00;1.13;;;17.70;69.30;;;;;;5043837;28;20108;-47
2023/03/19 11:56:54;;;;;;;3.50;0.80;;;19.80;62.00;;;;;;5050129;28;20017;-54
2023/03/19 11:59:44;;;;;;;3.40;0.98;;;21.40;59.10;;;;;;5050378;28;20033;-46
2023/03/19 12:02:36;;;;;;;3.47;1.05;;;22.30;55.80;;;;;;5019071;28;20025;-44
2023/03/19 12:05:08;;;;;;;3.45;1.02;;;21.60;53.50;;;;;;5050428;28;20087;-46
2023/03/19 12:07:53;;;;;;;2.00;0.80;;;20.60;55.20;;;;;;5050308;28;20478;-46
2023/03/19 12:11:13;;;;;;;2.17;0.80;;;19.60;57.40;;;;;;5050305;28;20033;-48
2023/03/19 12:13:54;;;;;;;2.17;0.90;;;19.40;57.90;;;;;;5040209;28;20033;-51
2023/03/19 12:16:25;;;;;;;5.13;0.93;;;20.00;55.70;;;;;;5037223;28;20037;-51
2023/03/19 12:19:10;;;;;;;3.78;0.93;;;20.60;54.60;;;;;;5050253;28;20033;-47
2023/03/19 12:22:04;;;;;;;2.88;0.73;;;22.10;54.80;;;;;;5021217;28;20077;-49
2023/03/19 12:25:02;;;;;;;2.35;0.73;;;23.60;51.50;;;;;;5050293;28;20048;-45
2023/03/19 12:27:34;;;;;;;3.55;0.80;;;22.30;49.90;;;;;;5049845;28;20039;-49
2023/03/19 12:30:17;;;;;;;4.28;0.90;;;20.00;52.50;;;;;;5050173;28;20029;-44
2023/03/19 12:33:06;;;;;;;3.60;0.90;;;18.20;57.20;;;;;;5050327;28;20033;-54
2023/03/19 12:35:37;;;;;;;4.07;1.05;;;17.10;61.80;;;;;;5050238;28;20131;-48
2023/03/19 12:38:31;;;;;;;4.22;1.00;;;16.80;63.90;;;;;;5049815;28;20023;-51
2023/03/19 12:41:02;;;;;;;2.70;0.80;;;16.20;63.80;;;;;;5050105;28;20029;-50
2023/03/19 12:43:48;;;;;;;4.05;1.08;;;16.50;64.10;;;;;;5036439;28;20470;-53
2023/03/19 12:46:44;;;;;;;2.65;1.00;;;16.20;63.10;;;;;;5049959;28;20500;-48
2023/03/19 12:49:16;;;;;;;1.08;0.80;;;15.50;66.10;;;;;;5050115;28;20037;-47
2023/03/19 12:51:53;;;;;;;4.25;1.10;;;15.00;66.10;;;;;;5050073;28;20109;-46
2023/03/19 12:54:41;;;;;;;3.00;1.20;;;14.50;67.70;;;;;;5032104;28;20101;-51
2023/03/19 12:57:30;;;;;;;2.25;0.95;;;14.60;69.10;;;;;;5041001;28;20021;-48
2023/03/19 13:00:08;;;;;;;3.58;1.00;;;14.90;66.90;;;;;;5048779;28;20143;-46
2023/03/19 13:02:57;;;;;;;2.35;0.98;;;15.20;67.10;;;;;;5049989;28;20160;-55